aviador You're here:

KMLP Decoded Metar

MULLAN PASS in ID, USA
Report Time2017-10-21 15:31:00
UTC Time2017-10-21 15:55:46
Flight Rules ifr IFR
WindVRB at 04 kt
Visibility9999 m
Phenomena:N/A
Clouds:Broken 006 Hf
Overcast 010 Hf
Expected CloudBase > 800 ft AGL from Temp-Dew spread
Ceiling600 ft
Temp-4°C (ISA -7)
Dew Point-6°C (86% RH)
AAT-8.2°C
QNH1013 hPa
Density Alt5,243 ft
Elevation6,027 ft
Report Wrong Elevation
Raw Report
KMLP 211531Z AUTO VRB04KT 10SM BKN006 OVC010 M04/M06 A2992 RMK AO2
T10391056 TSNO=

Extra information for KMLP:More info

Metar Taf Metar & Taf Last 4 Metars F.Rules Stats Wind Profile Meteogram Temp Stats Airport Information Weather charts Add Link Nearby VenuesMetar ALERT Operation Metar Decoded Social comments

AIRNAV info for KMLP